Time;durP1;ratioP1;P1;durP2;ratioP2;P2;SDS_P1;SDS_P2;PMS_P1;PMS_P2;Temp;Humidity;BMP_temperature;BMP_pressure;BME280_temperature;BME280_humidity;BME280_pressure;Samples;Min_cycle;Max_cycle;Signal;HPM_P1;HPM_P2
2024/03/01 00:00:26;;;;;;;1.55;1.10;;;8.80;99.90;;;;;;5060702;28;20199;-79
2024/03/01 00:02:55;;;;;;;6.80;2.83;;;8.80;99.90;;;;;;5060006;28;20798;-79
2024/03/01 00:05:22;;;;;;;1.17;1.08;;;8.70;99.90;;;;;;5060317;28;20206;-79
2024/03/01 00:07:49;;;;;;;6.97;3.27;;;8.80;99.90;;;;;;5060233;28;20219;-77
2024/03/01 00:10:17;;;;;;;7.05;4.45;;;8.80;99.90;;;;;;5059617;28;20449;-79
2024/03/01 00:12:43;;;;;;;6.95;2.60;;;8.80;99.90;;;;;;5060490;28;20222;-79
2024/03/01 00:15:12;;;;;;;2.13;2.03;;;8.80;99.90;;;;;;5059933;28;20302;-79
2024/03/01 00:17:39;;;;;;;11.43;4.40;;;8.80;99.90;;;;;;5059823;28;20727;-79
2024/03/01 00:20:07;;;;;;;4.05;3.08;;;8.80;99.90;;;;;;5060126;28;20437;-80
2024/03/01 00:22:37;;;;;;;1.67;1.58;;;8.70;99.90;;;;;;5060371;28;20606;-79
2024/03/01 00:25:04;;;;;;;2.40;2.15;;;8.70;99.90;;;;;;5060651;28;20222;-78
2024/03/01 00:27:31;;;;;;;7.28;3.50;;;8.60;99.90;;;;;;5059765;28;20592;-79
2024/03/01 00:29:58;;;;;;;7.72;4.80;;;8.60;99.90;;;;;;5061257;28;20198;-79
2024/03/01 00:32:27;;;;;;;0.65;0.63;;;8.50;99.90;;;;;;5060288;28;20214;-79
2024/03/01 00:34:53;;;;;;;5.38;3.08;;;8.50;99.90;;;;;;5060180;28;20195;-79
2024/03/01 00:37:20;;;;;;;1.65;1.55;;;8.50;99.90;;;;;;5059974;28;20215;-79
2024/03/01 00:39:47;;;;;;;2.35;1.70;;;8.50;99.90;;;;;;5059794;28;20199;-80
2024/03/01 00:42:16;;;;;;;3.63;3.08;;;8.60;99.90;;;;;;5058730;28;20195;-79
2024/03/01 00:44:44;;;;;;;4.03;3.60;;;8.60;99.90;;;;;;5059638;28;20242;-79
2024/03/01 00:47:11;;;;;;;5.20;2.78;;;8.60;99.90;;;;;;5060597;28;20227;-79
2024/03/01 00:49:40;;;;;;;6.95;3.40;;;8.60;99.90;;;;;;5058504;28;20643;-79
2024/03/01 00:52:07;;;;;;;3.85;3.25;;;8.60;99.90;;;;;;5059443;28;20258;-77
2024/03/01 00:54:35;;;;;;;1.55;1.45;;;8.60;99.90;;;;;;5059806;28;20259;-79
2024/03/01 00:57:01;;;;;;;4.63;3.47;;;8.60;99.90;;;;;;5060566;28;20829;-78
2024/03/01 00:59:28;;;;;;;5.03;3.35;;;8.60;99.90;;;;;;5059547;28;20441;-79
2024/03/01 01:01:55;;;;;;;12.90;3.92;;;8.60;99.90;;;;;;5059543;28;20195;-79
2024/03/01 01:04:22;;;;;;;3.53;2.70;;;8.50;99.90;;;;;;5060081;28;20198;-79
2024/03/01 01:06:51;;;;;;;2.40;2.20;;;8.50;99.90;;;;;;5059376;28;20434;-77
2024/03/01 01:09:17;;;;;;;3.10;2.60;;;8.50;99.90;;;;;;5059886;28;20442;-79
2024/03/01 01:11:44;;;;;;;4.43;3.35;;;8.60;99.90;;;;;;5064395;28;20453;-79
2024/03/01 01:14:13;;;;;;;6.38;2.60;;;8.60;99.90;;;;;;5063388;28;20223;-78
2024/03/01 01:16:39;;;;;;;3.38;3.05;;;8.60;99.90;;;;;;5062646;28;20198;-78
2024/03/01 01:19:06;;;;;;;7.60;4.10;;;8.60;99.90;;;;;;5061905;28;20190;-77
2024/03/01 01:21:35;;;;;;;2.20;1.87;;;8.60;99.90;;;;;;5062592;28;20191;-79
2024/03/01 01:24:06;;;;;;;3.80;2.40;;;8.60;99.90;;;;;;5062435;28;20950;-80
2024/03/01 01:26:33;;;;;;;3.45;2.78;;;8.60;99.90;;;;;;5062828;28;20187;-78
2024/03/01 01:29:02;;;;;;;5.18;3.80;;;8.50;99.90;;;;;;5062331;28;20219;-79
2024/03/01 01:31:29;;;;;;;2.85;2.35;;;8.50;99.90;;;;;;5062230;28;20225;-78
2024/03/01 01:33:56;;;;;;;4.78;4.30;;;8.50;99.90;;;;;;5061101;28;20195;-79
2024/03/01 01:36:23;;;;;;;3.70;2.50;;;8.50;99.90;;;;;;5060922;28;20199;-79
2024/03/01 01:38:51;;;;;;;5.45;3.75;;;8.40;99.90;;;;;;5060533;28;20242;-78
2024/03/01 01:41:19;;;;;;;3.00;1.98;;;8.40;99.90;;;;;;5060103;28;20202;-77
2024/03/01 01:43:47;;;;;;;0.60;0.60;;;8.50;99.90;;;;;;5058968;28;20286;-78
2024/03/01 01:46:18;;;;;;;5.05;3.33;;;8.40;99.90;;;;;;5058531;28;20269;-78
2024/03/01 01:48:49;;;;;;;6.88;2.75;;;8.40;99.90;;;;;;5055829;28;20214;-78
2024/03/01 01:51:17;;;;;;;3.20;2.95;;;8.40;99.90;;;;;;5055324;28;20555;-78
2024/03/01 01:53:45;;;;;;;2.97;1.15;;;8.40;99.90;;;;;;5055587;28;20215;-78
2024/03/01 01:56:13;;;;;;;5.15;4.65;;;8.40;99.90;;;;;;5062718;28;20196;-79
2024/03/01 01:58:42;;;;;;;1.02;1.02;;;8.50;99.90;;;;;;5063022;28;20295;-79
2024/03/01 02:01:09;;;;;;;2.00;1.13;;;8.40;99.90;;;;;;5063154;28;20199;-79
2024/03/01 02:03:37;;;;;;;9.93;6.20;;;8.50;99.90;;;;;;5062879;28;20293;-79
2024/03/01 02:06:06;;;;;;;6.45;3.80;;;8.50;99.90;;;;;;5062626;28;20229;-79
2024/03/01 02:08:33;;;;;;;4.22;2.10;;;8.50;99.90;;;;;;5061952;28;20691;-79
2024/03/01 02:11:02;;;;;;;0.50;0.40;;;8.40;99.90;;;;;;5062224;28;20202;-80
2024/03/01 02:13:29;;;;;;;2.53;1.92;;;8.30;99.90;;;;;;5062772;28;20195;-79
2024/03/01 02:15:58;;;;;;;1.58;1.48;;;8.30;99.90;;;;;;5062553;28;20202;-79
2024/03/01 02:18:25;;;;;;;3.15;2.50;;;8.30;99.90;;;;;;5062374;28;20598;-79
2024/03/01 02:21:03;;;;;;;10.43;3.35;;;8.20;99.90;;;;;;5061597;28;20206;-79
2024/03/01 02:23:34;;;;;;;5.40;1.90;;;8.20;99.90;;;;;;5062618;28;20195;-79
2024/03/01 02:26:01;;;;;;;4.75;4.25;;;8.20;99.90;;;;;;5063021;28;20191;-80
2024/03/01 02:28:31;;;;;;;9.60;3.20;;;8.20;99.90;;;;;;5061797;28;20215;-80
2024/03/01 02:31:00;;;;;;;1.13;1.02;;;8.20;99.90;;;;;;5062229;28;20199;-79
2024/03/01 02:33:29;;;;;;;2.05;1.95;;;8.20;99.90;;;;;;5060434;28;20202;-80
2024/03/01 02:35:56;;;;;;;1.85;1.67;;;8.20;99.90;;;;;;5062253;28;20201;-79
2024/03/01 02:38:23;;;;;;;2.88;2.53;;;8.10;99.90;;;;;;5060795;28;20211;-79
2024/03/01 02:40:52;;;;;;;5.70;3.10;;;8.10;99.90;;;;;;5062456;28;20198;-79
2024/03/01 02:43:20;;;;;;;5.38;2.17;;;8.00;99.90;;;;;;5062019;28;20202;-79
2024/03/01 02:45:47;;;;;;;1.90;1.80;;;8.00;99.90;;;;;;5061616;28;20199;-78
2024/03/01 02:48:14;;;;;;;1.88;1.75;;;8.00;99.90;;;;;;5061256;28;20219;-79
2024/03/01 02:50:42;;;;;;;2.85;2.47;;;8.00;99.90;;;;;;5061331;28;20191;-78
2024/03/01 02:53:10;;;;;;;4.50;3.40;;;8.00;99.90;;;;;;5060998;28;20222;-79
2024/03/01 02:55:36;;;;;;;1.50;1.40;;;8.00;99.90;;;;;;5060718;28;20195;-79
2024/03/01 02:58:06;;;;;;;7.57;4.53;;;8.00;99.90;;;;;;5060267;28;20214;-79
2024/03/01 03:00:33;;;;;;;1.80;0.95;;;7.90;99.90;;;;;;5060409;28;20445;-79
2024/03/01 03:03:00;;;;;;;5.25;4.05;;;7.90;99.90;;;;;;5060778;28;20199;-79
2024/03/01 03:05:26;;;;;;;3.85;3.50;;;7.90;99.90;;;;;;5059952;28;20206;-77
2024/03/01 03:07:57;;;;;;;4.75;2.50;;;7.90;99.90;;;;;;5058832;28;20239;-77
2024/03/01 03:10:25;;;;;;;6.20;4.78;;;7.90;99.90;;;;;;5059445;28;20190;-79
2024/03/01 03:12:51;;;;;;;8.45;5.40;;;7.90;99.90;;;;;;5057962;28;20196;-79
2024/03/01 03:15:23;;;;;;;5.88;3.28;;;8.00;99.90;;;;;;5057029;28;20194;-78
2024/03/01 03:17:52;;;;;;;4.15;1.63;;;7.90;99.90;;;;;;5054381;28;20616;-78
2024/03/01 03:20:21;;;;;;;1.05;0.98;;;7.90;99.90;;;;;;5053904;28;20252;-78
2024/03/01 03:22:50;;;;;;;1.90;1.80;;;7.90;99.90;;;;;;5053979;28;20249;-78
2024/03/01 03:25:20;;;;;;;4.07;3.85;;;7.90;99.90;;;;;;5061521;28;20272;-80
2024/03/01 03:27:46;;;;;;;1.50;1.05;;;7.90;99.90;;;;;;5061470;28;20229;-81
2024/03/01 03:30:14;;;;;;;7.13;4.20;;;7.90;99.90;;;;;;5061343;28;20722;-79
2024/03/01 03:32:45;;;;;;;2.63;1.88;;;7.80;99.90;;;;;;5060462;28;20195;-79
2024/03/01 03:35:13;;;;;;;6.15;3.42;;;7.80;99.90;;;;;;5060747;28;20203;-80
2024/03/01 03:37:39;;;;;;;1.02;1.02;;;7.80;99.90;;;;;;5061612;28;20642;-80
2024/03/01 03:40:14;;;;;;;3.22;1.77;;;7.70;99.90;;;;;;5061533;28;20196;-79
2024/03/01 03:42:41;;;;;;;8.82;5.05;;;7.70;99.90;;;;;;5063751;28;20258;-78
2024/03/01 03:45:09;;;;;;;11.70;6.78;;;7.70;99.90;;;;;;5062891;28;20198;-79
2024/03/01 03:47:38;;;;;;;5.55;4.80;;;7.70;99.90;;;;;;5060810;28;20222;-79
2024/03/01 03:50:09;;;;;;;2.65;2.17;;;7.70;99.90;;;;;;5061450;28;20201;-79
2024/03/01 03:52:36;;;;;;;1.48;1.30;;;7.60;99.90;;;;;;5060765;28;20201;-79
2024/03/01 03:55:05;;;;;;;5.05;2.60;;;7.60;99.90;;;;;;5061060;28;20199;-79
2024/03/01 03:57:32;;;;;;;2.88;2.67;;;7.60;99.90;;;;;;5060490;28;20247;-79
2024/03/01 04:00:00;;;;;;;2.00;1.88;;;7.60;99.90;;;;;;5060584;28;20229;-79
2024/03/01 04:02:27;;;;;;;11.57;4.57;;;7.70;99.90;;;;;;5060884;28;20214;-79
2024/03/01 04:04:54;;;;;;;5.57;1.50;;;7.70;99.90;;;;;;5060295;28;20205;-80
2024/03/01 04:07:22;;;;;;;5.03;4.60;;;7.70;99.90;;;;;;5061029;28;20646;-79
2024/03/01 04:09:50;;;;;;;6.75;4.47;;;7.70;99.90;;;;;;5060849;28;20218;-79
2024/03/01 04:12:18;;;;;;;6.75;4.03;;;7.60;99.90;;;;;;5060597;28;20194;-79
2024/03/01 04:14:46;;;;;;;4.10;1.13;;;7.70;99.90;;;;;;5060480;28;20199;-79
2024/03/01 04:17:14;;;;;;;1.50;1.40;;;7.70;99.90;;;;;;5060237;28;20220;-79
2024/03/01 04:19:41;;;;;;;2.90;2.35;;;7.70;99.90;;;;;;5060853;28;20199;-79
2024/03/01 04:22:09;;;;;;;2.63;2.42;;;7.60;99.90;;;;;;5060938;28;20203;-79
2024/03/01 04:24:44;;;;;;;0.50;0.50;;;7.60;99.90;;;;;;5060395;28;20226;-79
2024/03/01 04:27:12;;;;;;;4.47;4.03;;;7.60;99.90;;;;;;5059981;28;20241;-80
2024/03/01 04:29:40;;;;;;;3.75;3.28;;;7.70;99.90;;;;;;5060784;28;20226;-80
2024/03/01 04:32:08;;;;;;;12.80;3.78;;;7.70;99.90;;;;;;5061301;28;20194;-79
2024/03/01 04:34:35;;;;;;;2.95;2.65;;;7.70;99.90;;;;;;5060714;28;20242;-79
2024/03/01 04:37:04;;;;;;;3.38;3.08;;;7.70;99.90;;;;;;5073572;28;20211;-76
2024/03/01 04:39:32;;;;;;;6.32;2.50;;;7.80;99.90;;;;;;5076330;28;20218;-76
2024/03/01 04:42:01;;;;;;;7.35;4.28;;;7.90;99.90;;;;;;5076606;28;20206;-78
2024/03/01 04:44:27;;;;;;;2.20;1.35;;;7.90;99.90;;;;;;5077131;28;20187;-77
2024/03/01 04:46:56;;;;;;;0.50;0.40;;;7.90;99.90;;;;;;5070571;28;20195;-79
2024/03/01 04:49:22;;;;;;;5.20;2.65;;;8.00;99.90;;;;;;5063881;28;20214;-79
2024/03/01 04:51:51;;;;;;;3.55;2.70;;;8.10;99.90;;;;;;5063759;28;20194;-79
2024/03/01 04:54:18;;;;;;;3.20;1.45;;;8.10;99.90;;;;;;5064608;28;20606;-79
2024/03/01 04:56:45;;;;;;;3.28;2.72;;;8.10;99.90;;;;;;5065448;28;20201;-79
2024/03/01 04:59:13;;;;;;;3.30;2.30;;;8.10;99.90;;;;;;5064951;28;20191;-78
2024/03/01 05:01:41;;;;;;;4.93;3.05;;;8.20;99.90;;;;;;5064307;28;20252;-79
2024/03/01 05:04:08;;;;;;;1.85;1.85;;;8.20;99.90;;;;;;5063402;28;20191;-79
2024/03/01 05:06:36;;;;;;;2.45;1.13;;;8.20;99.90;;;;;;5063934;28;20210;-79
2024/03/01 05:09:07;;;;;;;4.00;2.95;;;8.20;99.90;;;;;;5063256;28;20214;-78
2024/03/01 05:11:35;;;;;;;6.55;3.55;;;8.30;99.90;;;;;;5063850;28;20195;-79
2024/03/01 05:14:03;;;;;;;1.50;1.43;;;8.30;99.90;;;;;;5063708;28;20194;-79
2024/03/01 05:16:31;;;;;;;1.02;1.02;;;8.30;99.90;;;;;;5063442;28;20817;-79
2024/03/01 05:19:00;;;;;;;2.47;2.27;;;8.30;99.90;;;;;;5064042;28;20227;-78
2024/03/01 05:21:29;;;;;;;3.65;3.35;;;8.30;99.90;;;;;;5063432;28;20430;-79
2024/03/01 05:23:58;;;;;;;4.93;3.28;;;8.30;99.90;;;;;;5063137;28;20289;-78
2024/03/01 05:26:27;;;;;;;1.50;1.40;;;8.30;99.90;;;;;;5063428;28;20206;-79
2024/03/01 05:28:56;;;;;;;0.90;0.90;;;8.30;99.90;;;;;;5062201;28;20796;-79
2024/03/01 05:31:23;;;;;;;4.72;1.85;;;8.40;99.90;;;;;;5061847;28;20610;-79
2024/03/01 05:33:51;;;;;;;0.50;0.50;;;8.40;99.90;;;;;;5061283;28;20612;-78
2024/03/01 05:36:19;;;;;;;1.95;1.50;;;8.50;99.90;;;;;;5061305;28;20191;-78
2024/03/01 05:38:46;;;;;;;1.15;0.80;;;8.50;99.90;;;;;;5059436;28;20217;-77
2024/03/01 05:41:13;;;;;;;3.13;1.90;;;8.60;99.90;;;;;;5057815;28;20286;-79
2024/03/01 05:43:41;;;;;;;1.10;0.87;;;8.60;99.90;;;;;;5054509;28;20675;-78
2024/03/01 05:46:17;;;;;;;6.32;1.83;;;8.60;99.90;;;;;;5055410;28;20968;-78
2024/03/01 05:48:47;;;;;;;0.88;0.88;;;8.70;99.90;;;;;;5055181;28;20226;-78
2024/03/01 05:51:16;;;;;;;4.28;3.35;;;8.70;99.90;;;;;;5062627;28;20199;-80
2024/03/01 05:53:43;;;;;;;4.13;3.28;;;8.80;99.90;;;;;;5063074;28;20286;-79
2024/03/01 05:56:17;;;;;;;1.60;1.50;;;8.70;99.90;;;;;;5062652;28;20191;-79
2024/03/01 05:58:45;;;;;;;2.67;2.40;;;8.80;99.90;;;;;;5063274;28;20454;-79
2024/03/01 06:01:12;;;;;;;2.88;2.05;;;8.80;99.90;;;;;;5062038;28;20222;-79
2024/03/01 06:03:39;;;;;;;2.97;2.35;;;8.80;99.90;;;;;;5062663;28;20211;-79
2024/03/01 06:06:08;;;;;;;1.42;1.33;;;8.80;99.90;;;;;;5062757;28;20215;-79
2024/03/01 06:08:37;;;;;;;2.08;1.38;;;8.90;99.90;;;;;;5062745;28;20610;-79
2024/03/01 06:11:05;;;;;;;2.03;1.80;;;8.90;99.90;;;;;;5062108;28;20195;-79
2024/03/01 06:13:32;;;;;;;4.40;4.00;;;8.90;99.90;;;;;;5062940;28;20199;-79
2024/03/01 06:15:58;;;;;;;2.20;2.00;;;9.00;99.90;;;;;;5063217;28;20211;-79
2024/03/01 06:18:26;;;;;;;6.47;3.42;;;9.00;99.90;;;;;;5064397;28;20215;-79
2024/03/01 06:20:55;;;;;;;3.08;1.95;;;9.00;99.90;;;;;;5063984;28;20207;-79
2024/03/01 06:23:22;;;;;;;1.15;1.05;;;9.00;99.90;;;;;;5063315;28;20195;-79
2024/03/01 06:25:50;;;;;;;7.05;5.10;;;9.00;99.90;;;;;;5062173;28;20203;-79
2024/03/01 06:28:19;;;;;;;2.45;2.25;;;9.00;99.90;;;;;;5062826;28;20211;-79
2024/03/01 06:30:47;;;;;;;2.17;2.00;;;8.90;99.90;;;;;;5063560;28;20749;-79
2024/03/01 06:33:15;;;;;;;9.25;4.80;;;8.90;99.90;;;;;;5063793;28;20195;-79
2024/03/01 06:35:42;;;;;;;8.23;3.20;;;8.90;99.90;;;;;;5063063;28;20607;-79
2024/03/01 06:38:09;;;;;;;3.05;2.38;;;8.90;99.90;;;;;;5062653;28;20580;-78
2024/03/01 06:40:37;;;;;;;8.82;5.28;;;8.90;99.90;;;;;;5062539;28;20656;-79
2024/03/01 06:43:06;;;;;;;5.25;3.38;;;8.80;99.90;;;;;;5059856;28;20187;-78
2024/03/01 06:45:34;;;;;;;6.97;2.33;;;8.70;99.90;;;;;;5063180;28;20187;-79
2024/03/01 06:48:01;;;;;;;2.45;1.85;;;8.60;99.90;;;;;;5062666;28;20211;-79
2024/03/01 06:50:28;;;;;;;5.05;2.25;;;8.50;99.90;;;;;;5059967;28;20211;-79
2024/03/01 06:52:56;;;;;;;2.42;2.22;;;8.50;99.90;;;;;;5062754;28;20191;-79
2024/03/01 06:55:25;;;;;;;0.70;0.70;;;8.50;99.90;;;;;;5063305;28;20695;-79
2024/03/01 06:57:53;;;;;;;1.75;1.65;;;8.50;99.90;;;;;;5062525;28;20285;-79
2024/03/01 07:00:21;;;;;;;1.13;1.13;;;8.40;99.90;;;;;;5062208;28;20198;-80
2024/03/01 07:02:48;;;;;;;3.35;3.15;;;8.40;99.90;;;;;;5062343;28;20269;-79
2024/03/01 07:05:17;;;;;;;1.92;1.83;;;8.20;99.90;;;;;;5062541;28;20206;-79
2024/03/01 07:07:45;;;;;;;2.72;1.10;;;8.10;99.90;;;;;;5062428;28;20218;-79
2024/03/01 07:10:15;;;;;;;0.82;0.82;;;7.90;99.90;;;;;;5062135;28;20218;-79
2024/03/01 07:12:43;;;;;;;0.70;0.60;;;7.80;99.90;;;;;;5062287;28;20195;-79
2024/03/01 07:15:10;;;;;;;1.55;1.10;;;7.70;99.90;;;;;;5061799;28;20195;-79
2024/03/01 07:17:38;;;;;;;0.93;0.80;;;7.60;99.90;;;;;;5060477;28;20211;-78
2024/03/01 07:20:06;;;;;;;1.67;0.95;;;7.60;99.90;;;;;;5060203;28;20198;-78
2024/03/01 07:22:33;;;;;;;0.90;0.90;;;7.50;99.90;;;;;;5056791;28;20754;-77
2024/03/01 07:24:59;;;;;;;0.60;0.50;;;7.60;99.90;;;;;;5048922;28;20207;-79
2024/03/01 07:27:27;;;;;;;1.70;1.02;;;7.50;99.90;;;;;;5056668;28;20219;-78
2024/03/01 07:29:55;;;;;;;0.50;0.40;;;7.50;99.90;;;;;;5054227;28;20630;-78
2024/03/01 07:32:22;;;;;;;0.50;0.50;;;7.50;99.90;;;;;;5047200;28;20544;-78
2024/03/01 07:34:50;;;;;;;0.98;0.77;;;7.50;99.90;;;;;;5054325;28;20602;-78
2024/03/01 07:37:19;;;;;;;0.50;0.40;;;7.50;99.90;;;;;;5060772;28;20222;-80
2024/03/01 07:39:46;;;;;;;2.45;1.05;;;7.60;99.90;;;;;;5060265;28;20218;-79
2024/03/01 07:42:13;;;;;;;2.55;1.95;;;7.60;99.90;;;;;;5052915;28;20274;-78
2024/03/01 07:44:41;;;;;;;2.53;1.25;;;7.60;99.90;;;;;;5054098;28;20631;-79
2024/03/01 07:47:08;;;;;;;7.32;0.55;;;7.60;99.90;;;;;;5059908;28;20215;-79
2024/03/01 07:49:36;;;;;;;0.70;0.70;;;7.50;99.90;;;;;;5060167;28;20713;-79
2024/03/01 07:52:14;;;;;;;3.05;0.75;;;7.50;99.90;;;;;;5060698;28;20191;-78
2024/03/01 07:54:41;;;;;;;1.13;1.13;;;7.50;99.90;;;;;;5060531;28;20206;-79
2024/03/01 07:57:09;;;;;;;1.33;1.23;;;7.50;99.90;;;;;;5060434;28;20222;-79
2024/03/01 07:59:38;;;;;;;0.93;0.93;;;7.50;99.90;;;;;;5061036;28;20725;-78
2024/03/01 08:02:12;;;;;;;0.50;0.50;;;7.60;99.90;;;;;;5057191;28;20203;-78
2024/03/01 08:04:39;;;;;;;3.45;2.38;;;7.60;99.90;;;;;;5056381;28;20206;-78
2024/03/01 08:07:09;;;;;;;4.50;2.20;;;7.50;99.90;;;;;;5064120;28;20215;-78
2024/03/01 08:09:40;;;;;;;1.20;1.02;;;7.50;99.90;;;;;;5058810;28;20250;-78
2024/03/01 08:12:11;;;;;;;1.55;1.45;;;7.40;99.90;;;;;;5056905;28;20199;-78
2024/03/01 08:14:39;;;;;;;0.60;0.60;;;7.40;99.90;;;;;;5057123;28;20202;-79
2024/03/01 08:17:09;;;;;;;1.88;1.77;;;7.50;99.90;;;;;;5049014;28;20216;-78
2024/03/01 08:19:41;;;;;;;0.60;0.60;;;7.50;99.90;;;;;;5055254;28;20202;-79
2024/03/01 08:22:09;;;;;;;4.10;2.03;;;7.60;99.90;;;;;;5060299;28;20209;-78
2024/03/01 08:24:38;;;;;;;1.95;1.83;;;7.60;99.90;;;;;;5056169;28;20199;-78
2024/03/01 08:27:06;;;;;;;2.33;2.15;;;7.60;99.90;;;;;;5055911;28;20703;-79
2024/03/01 08:29:34;;;;;;;3.10;1.50;;;7.60;99.90;;;;;;5050876;28;20214;-78
2024/03/01 08:32:03;;;;;;;0.65;0.65;;;7.60;99.90;;;;;;5056449;28;20299;-79
2024/03/01 08:34:40;;;;;;;3.10;2.90;;;7.70;99.90;;;;;;5055469;28;20277;-78
2024/03/01 08:37:13;;;;;;;3.33;2.45;;;7.60;99.90;;;;;;5056513;28;20211;-78
2024/03/01 08:39:40;;;;;;;1.73;1.58;;;7.50;99.90;;;;;;5056088;28;20195;-78
2024/03/01 08:42:09;;;;;;;2.15;1.95;;;7.50;99.90;;;;;;5056758;28;20199;-78
2024/03/01 08:44:42;;;;;;;1.02;1.02;;;7.50;99.90;;;;;;5049311;28;20627;-79
2024/03/01 08:47:24;;;;;;;0.50;0.47;;;7.50;99.90;;;;;;5055612;28;20214;-78
2024/03/01 08:50:33;;;;;;;1.92;1.60;;;7.50;99.90;;;;;;5048093;28;20203;-78
2024/03/01 08:53:03;;;;;;;1.67;1.58;;;7.50;99.90;;;;;;5056374;28;20206;-78
2024/03/01 08:55:43;;;;;;;1.30;1.10;;;7.50;99.90;;;;;;5057094;28;20240;-79
2024/03/01 08:58:39;;;;;;;2.80;0.85;;;7.60;99.90;;;;;;5055154;28;20246;-77
2024/03/01 09:01:23;;;;;;;1.08;1.05;;;7.60;99.90;;;;;;5055828;28;20575;-77
2024/03/01 09:03:51;;;;;;;1.27;1.15;;;7.60;99.90;;;;;;5055707;28;20214;-78
2024/03/01 09:06:19;;;;;;;0.50;0.40;;;7.60;99.90;;;;;;5057069;28;20187;-78
2024/03/01 09:08:48;;;;;;;2.95;1.60;;;7.50;99.90;;;;;;5057985;28;20226;-79
2024/03/01 09:11:22;;;;;;;2.25;1.10;;;7.50;99.90;;;;;;5059275;28;20247;-79
2024/03/01 09:13:49;;;;;;;0.50;0.40;;;7.50;99.90;;;;;;5059381;28;20195;-76
2024/03/01 09:16:19;;;;;;;0.60;0.60;;;7.60;99.90;;;;;;5057635;28;20549;-80
2024/03/01 09:18:49;;;;;;;3.22;1.33;;;7.60;99.90;;;;;;5059077;28;20223;-79
2024/03/01 09:21:43;;;;;;;1.23;0.75;;;7.80;99.90;;;;;;5045087;28;20203;-79
2024/03/01 09:24:17;;;;;;;1.17;1.08;;;7.90;99.90;;;;;;5058579;28;20200;-79
2024/03/01 09:26:44;;;;;;;0.93;0.88;;;8.00;99.90;;;;;;5059582;28;20192;-80
2024/03/01 09:29:30;;;;;;;0.50;0.40;;;8.10;99.90;;;;;;5050038;28;20694;-79
2024/03/01 09:32:00;;;;;;;4.30;1.30;;;8.20;99.90;;;;;;5061287;28;20202;-80
2024/03/01 09:34:33;;;;;;;1.90;0.88;;;8.30;99.90;;;;;;5062228;28;20674;-80
2024/03/01 09:37:04;;;;;;;5.25;1.50;;;8.30;99.90;;;;;;5060909;28;20222;-79
2024/03/01 09:39:33;;;;;;;1.55;1.45;;;8.40;99.90;;;;;;5060731;28;20659;-79
2024/03/01 09:42:28;;;;;;;1.17;0.65;;;8.50;99.90;;;;;;5059031;28;20201;-78
2024/03/01 09:45:28;;;;;;;2.30;1.13;;;8.50;99.90;;;;;;5051022;28;20249;-77
2024/03/01 09:48:16;;;;;;;0.50;0.50;;;8.50;99.90;;;;;;5052452;28;20302;-78
2024/03/01 09:51:15;;;;;;;0.75;0.75;;;8.50;99.90;;;;;;5057402;28;20218;-80
2024/03/01 09:53:59;;;;;;;2.08;1.42;;;8.50;99.90;;;;;;5058933;28;20210;-80
2024/03/01 09:56:35;;;;;;;0.70;0.70;;;8.40;99.90;;;;;;5056371;28;20191;-80
2024/03/01 09:59:13;;;;;;;0.70;0.70;;;8.50;99.90;;;;;;5063251;28;20457;-79
2024/03/01 10:01:44;;;;;;;1.10;1.00;;;8.90;99.90;;;;;;5055937;28;20195;-80
2024/03/01 10:04:22;;;;;;;0.70;0.70;;;9.60;99.90;;;;;;5061310;28;20430;-80
2024/03/01 10:07:10;;;;;;;0.80;0.80;;;10.40;99.90;;;;;;5054621;28;20437;-79
2024/03/01 10:10:04;;;;;;;1.23;0.93;;;11.00;99.90;;;;;;5063303;28;20934;-81
2024/03/01 10:12:47;;;;;;;0.93;0.70;;;11.50;99.90;;;;;;5062798;28;20433;-80
2024/03/01 10:15:25;;;;;;;0.80;0.80;;;11.30;99.90;;;;;;5062956;28;20436;-79
2024/03/01 10:17:59;;;;;;;1.20;1.10;;;11.30;99.90;;;;;;5054379;28;20461;-79
2024/03/01 10:20:40;;;;;;;1.20;0.90;;;11.20;99.90;;;;;;5055146;28;20449;-79
2024/03/01 10:23:33;;;;;;;1.23;1.13;;;11.10;99.90;;;;;;5055760;28;20454;-79
2024/03/01 10:26:07;;;;;;;1.33;0.73;;;11.20;99.90;;;;;;5065045;28;20442;-80
2024/03/01 10:28:57;;;;;;;0.70;0.60;;;11.50;99.90;;;;;;5066181;28;20461;-79
2024/03/01 10:31:39;;;;;;;0.50;0.50;;;11.20;99.90;;;;;;5056935;28;20477;-80
2024/03/01 10:34:16;;;;;;;1.90;0.90;;;11.30;99.90;;;;;;5060834;28;20441;-80
2024/03/01 10:36:44;;;;;;;1.33;1.23;;;12.00;99.90;;;;;;5058156;28;20433;-79
2024/03/01 10:39:15;;;;;;;0.90;0.90;;;12.50;99.90;;;;;;5062896;28;20430;-80
2024/03/01 10:41:49;;;;;;;2.90;1.50;;;12.30;99.90;;;;;;5062140;28;20438;-79
2024/03/01 10:44:27;;;;;;;0.70;0.70;;;12.40;99.90;;;;;;5061745;28;20436;-79
2024/03/01 10:47:01;;;;;;;1.37;0.87;;;11.90;99.90;;;;;;5062388;28;20434;-79
2024/03/01 10:49:38;;;;;;;0.77;0.70;;;11.40;99.90;;;;;;5061810;28;20444;-79
2024/03/01 10:52:10;;;;;;;1.77;1.67;;;11.00;99.90;;;;;;5062629;28;20476;-79
2024/03/01 10:54:37;;;;;;;0.50;0.40;;;10.60;99.90;;;;;;5061708;28;20433;-79
2024/03/01 10:57:08;;;;;;;0.80;0.80;;;10.40;99.90;;;;;;5062484;28;20457;-79
2024/03/01 10:59:43;;;;;;;1.03;0.80;;;10.40;99.90;;;;;;5061156;28;20783;-80
2024/03/01 11:02:16;;;;;;;1.90;0.87;;;10.10;99.90;;;;;;5062513;28;20445;-79
2024/03/01 11:04:53;;;;;;;7.83;1.40;;;10.10;99.90;;;;;;5061931;28;20511;-79
2024/03/01 11:07:31;;;;;;;1.37;1.27;;;10.10;99.90;;;;;;5060397;28;20461;-79
2024/03/01 11:10:05;;;;;;;1.03;1.03;;;10.10;99.90;;;;;;5061422;28;20460;-79
2024/03/01 11:12:38;;;;;;;0.87;0.77;;;10.60;99.90;;;;;;5061387;28;20436;-79
2024/03/01 11:15:13;;;;;;;0.83;0.83;;;11.80;99.90;;;;;;5070631;28;20434;-77
2024/03/01 11:17:42;;;;;;;0.90;0.90;;;11.70;99.90;;;;;;5076606;28;20453;-78
2024/03/01 11:20:17;;;;;;;1.40;1.23;;;11.40;99.90;;;;;;5075521;28;20430;-78
2024/03/01 11:22:51;;;;;;;1.63;1.53;;;11.10;99.90;;;;;;5076598;28;20472;-78
2024/03/01 11:28:04;;;;;;;4.20;1.90;;;12.20;99.90;;;;;;5060934;28;20460;-79
2024/03/01 11:30:37;;;;;;;0.90;0.90;;;13.10;99.90;;;;;;5061725;28;20500;-79
2024/03/01 11:33:05;;;;;;;0.77;0.77;;;13.20;99.90;;;;;;5061262;28;20441;-79
2024/03/01 11:35:39;;;;;;;3.07;1.47;;;13.30;99.90;;;;;;5060947;28;20544;-79
2024/03/01 11:38:19;;;;;;;0.60;0.60;;;13.50;99.90;;;;;;5060857;28;20461;-79
2024/03/01 11:40:54;;;;;;;1.47;1.03;;;13.50;99.90;;;;;;5061438;28;20433;-79
2024/03/01 11:43:40;;;;;;;1.20;0.60;;;13.60;99.90;;;;;;5061160;28;20444;-79
2024/03/01 11:46:45;;;;;;;1.17;1.00;;;14.30;99.90;;;;;;5060719;28;20464;-78
2024/03/01 11:49:27;;;;;;;0.60;0.50;;;14.80;99.90;;;;;;5060898;28;20422;-78
2024/03/01 11:52:07;;;;;;;0.93;0.80;;;15.00;99.90;;;;;;5060467;28;20823;-79
2024/03/01 11:54:51;;;;;;;0.50;0.40;;;16.00;99.90;;;;;;5057968;28;20806;-79
2024/03/01 11:57:27;;;;;;;0.50;0.40;;;16.80;99.90;;;;;;5057490;28;20465;-79
2024/03/01 12:00:18;;;;;;;0.50;0.40;;;16.70;99.90;;;;;;5054531;28;20457;-78
2024/03/01 12:03:09;;;;;;;2.50;1.00;;;16.70;99.30;;;;;;5044815;28;21127;-79
2024/03/01 12:05:47;;;;;;;1.53;0.83;;;16.00;99.00;;;;;;5048450;28;20772;-79
2024/03/01 12:08:36;;;;;;;0.60;0.43;;;16.30;99.60;;;;;;5048356;28;20544;-80
2024/03/01 12:11:21;;;;;;;0.50;0.40;;;17.00;98.10;;;;;;5060253;28;20502;-80
2024/03/01 12:13:55;;;;;;;0.50;0.40;;;17.20;97.10;;;;;;5060189;28;20438;-79
2024/03/01 12:16:38;;;;;;;0.50;0.40;;;16.80;96.20;;;;;;5059847;28;20441;-80
2024/03/01 12:19:18;;;;;;;0.90;0.70;;;16.40;95.30;;;;;;5060911;28;20434;-80
2024/03/01 12:22:11;;;;;;;0.60;0.60;;;15.30;96.40;;;;;;5059492;28;20555;-79
2024/03/01 12:24:40;;;;;;;0.50;0.40;;;14.80;98.40;;;;;;5053359;28;20509;-79
2024/03/01 12:27:17;;;;;;;0.50;0.40;;;14.80;99.90;;;;;;5057290;28;20972;-80
2024/03/01 12:29:54;;;;;;;0.50;0.40;;;14.60;99.90;;;;;;5057921;28;20437;-79
2024/03/01 12:32:32;;;;;;;0.50;0.50;;;14.30;99.90;;;;;;5046304;28;20538;-79
2024/03/01 12:35:20;;;;;;;0.50;0.50;;;14.40;99.90;;;;;;5056441;28;20813;-79
2024/03/01 12:38:02;;;;;;;0.70;0.70;;;14.60;99.90;;;;;;5059038;28;20469;-79
2024/03/01 12:40:35;;;;;;;0.50;0.40;;;14.60;99.90;;;;;;5052358;28;20437;-79
2024/03/01 12:43:16;;;;;;;0.50;0.40;;;14.80;99.90;;;;;;5050276;28;20441;-79
2024/03/01 12:46:24;;;;;;;0.50;0.40;;;14.80;99.90;;;;;;5059568;28;20422;-79
2024/03/01 12:49:01;;;;;;;0.53;0.50;;;14.10;99.90;;;;;;5053784;28;20948;-81
2024/03/01 12:51:31;;;;;;;1.07;0.50;;;14.30;99.90;;;;;;5059900;28;20476;-79
2024/03/01 12:54:04;;;;;;;1.17;0.60;;;14.70;99.90;;;;;;5060578;28;20441;-79
2024/03/01 12:56:34;;;;;;;0.87;0.40;;;15.00;99.90;;;;;;5059850;28;20441;-78
2024/03/01 12:59:18;;;;;;;0.50;0.40;;;14.90;99.90;;;;;;5052870;28;20465;-79
2024/03/01 13:02:02;;;;;;;0.50;0.40;;;15.70;99.90;;;;;;5058506;28;20447;-79
2024/03/01 13:04:37;;;;;;;0.60;0.50;;;16.00;98.30;;;;;;5060335;28;20433;-79
2024/03/01 13:07:09;;;;;;;0.60;0.50;;;15.70;97.90;;;;;;5061402;28;20457;-79
2024/03/01 13:09:43;;;;;;;0.50;0.50;;;16.00;98.30;;;;;;5059061;28;20433;-79
2024/03/01 13:12:18;;;;;;;0.50;0.40;;;16.70;98.50;;;;;;5063589;28;21008;-79
2024/03/01 13:14:58;;;;;;;0.70;0.60;;;16.40;96.30;;;;;;5063227;28;20451;-79
2024/03/01 13:17:33;;;;;;;0.67;0.67;;;15.90;96.60;;;;;;5063626;28;20960;-79
2024/03/01 13:20:10;;;;;;;0.60;0.53;;;15.60;96.90;;;;;;5063175;28;20440;-79